createdAt,value
2019-03-04T00:00:17.851Z,995.71
2019-03-04T00:01:17.811Z,995.69
2019-03-04T00:02:17.842Z,995.68
2019-03-04T00:03:17.860Z,995.65
2019-03-04T00:04:17.831Z,995.59
2019-03-04T00:05:17.921Z,995.63
2019-03-04T00:06:17.832Z,995.64
2019-03-04T00:07:17.854Z,995.70
2019-03-04T00:08:17.877Z,995.70
2019-03-04T00:09:17.874Z,995.66
2019-03-04T00:10:17.856Z,995.67
2019-03-04T00:11:17.885Z,995.64
2019-03-04T00:12:18.241Z,995.66
2019-03-04T00:13:17.905Z,995.58
2019-03-04T00:14:17.929Z,995.56
2019-03-04T00:15:17.902Z,995.57
2019-03-04T00:16:17.917Z,995.58
2019-03-04T00:17:17.918Z,995.55
2019-03-04T00:18:17.953Z,995.51
2019-03-04T00:19:17.932Z,995.55
2019-03-04T00:20:17.956Z,995.56
2019-03-04T00:21:17.927Z,995.56
2019-03-04T00:22:17.941Z,995.55
2019-03-04T00:23:17.995Z,995.44
2019-03-04T00:24:17.950Z,995.37
2019-03-04T00:25:17.975Z,995.32
2019-03-04T00:26:17.955Z,995.28
2019-03-04T00:27:17.961Z,995.29
2019-03-04T00:28:17.974Z,995.30
2019-03-04T00:29:18.018Z,995.30
2019-03-04T00:30:17.996Z,995.24
2019-03-04T00:31:17.992Z,995.17
2019-03-04T00:32:18.037Z,995.16
2019-03-04T00:33:18.007Z,995.16
2019-03-04T00:34:18.065Z,995.21
2019-03-04T00:35:18.015Z,995.16
2019-03-04T00:36:18.125Z,995.13
2019-03-04T00:37:18.040Z,995.14
2019-03-04T00:38:18.039Z,995.21
2019-03-04T00:39:18.045Z,995.23
2019-03-04T00:40:18.062Z,995.17
2019-03-04T00:41:18.047Z,995.19
2019-03-04T00:42:18.055Z,995.15
2019-03-04T00:43:18.097Z,995.16
2019-03-04T00:44:18.180Z,995.08
2019-03-04T00:45:18.116Z,995.04
2019-03-04T00:46:18.095Z,994.99
2019-03-04T00:47:18.092Z,995.10
2019-03-04T00:48:18.079Z,995.14
2019-03-04T00:49:18.112Z,995.13
2019-03-04T00:50:18.151Z,995.07
2019-03-04T00:51:18.131Z,995.00
2019-03-04T00:52:18.111Z,994.96
2019-03-04T00:53:18.118Z,994.96
2019-03-04T00:54:18.116Z,994.91
2019-03-04T00:55:18.147Z,994.92
2019-03-04T00:56:18.157Z,994.95
2019-03-04T00:57:18.195Z,994.90
2019-03-04T00:58:18.145Z,994.87
2019-03-04T00:59:18.166Z,994.84
2019-03-04T01:00:18.174Z,994.87
2019-03-04T01:01:18.184Z,994.83
2019-03-04T01:02:18.169Z,994.86
2019-03-04T01:03:18.181Z,994.80
2019-03-04T01:04:18.187Z,994.78
2019-03-04T01:05:18.195Z,994.80
2019-03-04T01:06:18.209Z,994.69
2019-03-04T01:07:18.194Z,994.66
2019-03-04T01:08:18.366Z,994.68
2019-03-04T01:09:18.219Z,994.61
2019-03-04T01:10:18.218Z,994.52
2019-03-04T01:11:18.227Z,994.57
2019-03-04T01:12:18.220Z,994.51
2019-03-04T01:13:18.237Z,994.52
2019-03-04T01:14:18.252Z,994.46
2019-03-04T01:15:18.245Z,994.43
2019-03-04T01:16:18.251Z,994.43
2019-03-04T01:17:18.251Z,994.46
2019-03-04T01:18:18.289Z,994.43
2019-03-04T01:19:18.295Z,994.41
2019-03-04T01:20:18.269Z,994.40
2019-03-04T01:21:18.283Z,994.38
2019-03-04T01:22:18.314Z,994.38
2019-03-04T01:23:18.421Z,994.34
2019-03-04T01:24:18.302Z,994.33
2019-03-04T01:25:18.313Z,994.32
2019-03-04T01:26:18.308Z,994.33
2019-03-04T01:27:18.335Z,994.31
2019-03-04T01:28:18.319Z,994.26
2019-03-04T01:29:18.339Z,994.24
2019-03-04T01:30:18.374Z,994.16
2019-03-04T01:31:18.347Z,994.16
2019-03-04T01:32:18.371Z,994.13
2019-03-04T01:33:18.370Z,994.06
2019-03-04T01:34:18.362Z,994.07
2019-03-04T01:35:18.401Z,994.02
2019-03-04T01:36:18.387Z,993.94
2019-03-04T01:37:18.389Z,993.89
2019-03-04T01:38:18.372Z,993.90
2019-03-04T01:39:18.416Z,993.87
2019-03-04T01:40:18.409Z,993.79
2019-03-04T01:41:18.395Z,993.77
2019-03-04T01:42:18.510Z,993.71
2019-03-04T01:43:18.442Z,993.70
2019-03-04T01:44:18.550Z,993.54
2019-03-04T01:45:18.433Z,993.54
2019-03-04T01:46:18.432Z,993.56
2019-03-04T01:47:18.469Z,993.58
2019-03-04T01:48:18.464Z,993.56
2019-03-04T01:49:18.442Z,993.53
2019-03-04T01:50:18.491Z,993.54
2019-03-04T01:51:18.507Z,993.52
2019-03-04T01:52:18.488Z,993.53
2019-03-04T01:53:18.493Z,993.56
2019-03-04T01:54:18.536Z,993.63
2019-03-04T01:55:18.531Z,993.67
2019-03-04T01:56:18.509Z,993.69
2019-03-04T01:57:18.519Z,993.74
2019-03-04T01:58:18.517Z,993.74
2019-03-04T01:59:18.525Z,993.79
2019-03-04T02:00:18.524Z,993.80
2019-03-04T02:01:18.548Z,993.81
2019-03-04T02:02:18.541Z,993.85
2019-03-04T02:03:18.566Z,993.90
2019-03-04T02:04:18.568Z,993.88
2019-03-04T02:05:18.547Z,993.88
2019-03-04T02:06:18.538Z,993.81
2019-03-04T02:07:18.541Z,993.84
2019-03-04T02:08:18.614Z,993.88
2019-03-04T02:09:18.573Z,993.89
2019-03-04T02:10:18.585Z,993.86
2019-03-04T02:11:18.586Z,993.81
2019-03-04T02:12:18.572Z,993.77
2019-03-04T02:13:18.583Z,993.75
2019-03-04T02:14:18.606Z,993.70
2019-03-04T02:15:18.618Z,993.62
2019-03-04T02:16:18.608Z,993.68
2019-03-04T02:17:18.629Z,993.71
2019-03-04T02:18:18.605Z,993.76
2019-03-04T02:19:18.657Z,993.75
2019-03-04T02:20:18.623Z,993.73
2019-03-04T02:21:18.634Z,993.72
2019-03-04T02:22:18.646Z,993.69
2019-03-04T02:23:18.654Z,993.78
2019-03-04T02:24:18.674Z,993.78
2019-03-04T02:25:18.651Z,993.85
2019-03-04T02:26:18.692Z,993.85
2019-03-04T02:27:18.667Z,993.92
2019-03-04T02:28:18.671Z,993.99
2019-03-04T02:29:18.700Z,993.97
2019-03-04T02:30:18.731Z,994.02
2019-03-04T02:31:18.734Z,994.08
2019-03-04T02:32:18.711Z,994.13
2019-03-04T02:33:18.716Z,994.13
2019-03-04T02:34:18.723Z,994.12
2019-03-04T02:35:18.707Z,994.10
2019-03-04T02:36:18.769Z,994.11
2019-03-04T02:37:18.727Z,994.06
2019-03-04T02:38:18.777Z,994.03
2019-03-04T02:39:18.744Z,993.95
2019-03-04T02:40:18.758Z,993.94
2019-03-04T02:41:18.739Z,993.93
2019-03-04T02:42:18.774Z,993.93
2019-03-04T02:43:18.777Z,993.91
2019-03-04T02:44:18.754Z,993.93
2019-03-04T02:45:18.789Z,993.91
2019-03-04T02:46:18.788Z,993.94
2019-03-04T02:47:18.781Z,993.94
2019-03-04T02:48:18.786Z,993.87
2019-03-04T02:49:18.798Z,993.85
2019-03-04T02:50:18.795Z,993.82
2019-03-04T02:51:18.840Z,993.74
2019-03-04T02:52:18.813Z,993.74
2019-03-04T02:53:18.807Z,993.70
2019-03-04T02:54:18.819Z,993.64
2019-03-04T02:55:18.836Z,993.61
2019-03-04T02:56:18.850Z,993.57
2019-03-04T02:57:18.825Z,993.58
2019-03-04T02:58:18.856Z,993.50
2019-03-04T02:59:18.876Z,993.44
2019-03-04T03:00:18.889Z,993.40
2019-03-04T03:01:18.842Z,993.40
2019-03-04T03:02:18.857Z,993.39
2019-03-04T03:03:18.864Z,993.33
2019-03-04T03:04:18.865Z,993.35
2019-03-04T03:05:18.908Z,993.35
2019-03-04T03:06:18.923Z,993.22
2019-03-04T03:07:18.879Z,993.23
2019-03-04T03:08:18.885Z,993.19
2019-03-04T03:09:18.901Z,993.16
2019-03-04T03:10:18.898Z,993.12
2019-03-04T03:11:18.914Z,993.10
2019-03-04T03:12:18.949Z,993.09
2019-03-04T03:13:18.923Z,993.08
2019-03-04T03:14:18.931Z,992.98
2019-03-04T03:15:18.926Z,992.91
2019-03-04T03:16:18.937Z,992.89
2019-03-04T03:17:18.986Z,992.92
2019-03-04T03:18:18.954Z,992.84
2019-03-04T03:19:18.962Z,992.87
2019-03-04T03:20:18.960Z,992.79
2019-03-04T03:21:18.962Z,992.85
2019-03-04T03:22:18.976Z,992.83
2019-03-04T03:23:19.011Z,992.85
2019-03-04T03:24:19.004Z,992.85
2019-03-04T03:25:18.978Z,992.80
2019-03-04T03:26:19.008Z,992.76
2019-03-04T03:27:19.007Z,992.81
2019-03-04T03:28:19.033Z,992.70
2019-03-04T03:29:18.996Z,992.69
2019-03-04T03:30:19.033Z,992.72
2019-03-04T03:31:19.032Z,992.68
2019-03-04T03:32:19.011Z,992.57
2019-03-04T03:33:19.063Z,992.61
2019-03-04T03:34:19.074Z,992.54
2019-03-04T03:35:19.061Z,992.48
2019-03-04T03:36:19.037Z,992.49
2019-03-04T03:37:19.056Z,992.45
2019-03-04T03:38:19.072Z,992.40
2019-03-04T03:39:19.087Z,992.31
2019-03-04T03:40:19.102Z,992.31
2019-03-04T03:41:19.069Z,992.34
2019-03-04T03:42:19.288Z,992.31
2019-03-04T03:43:19.068Z,992.31
2019-03-04T03:44:19.101Z,992.28
2019-03-04T03:45:19.100Z,992.32
2019-03-04T03:46:19.141Z,992.32
2019-03-04T03:47:19.101Z,992.27
2019-03-04T03:48:19.109Z,992.24
2019-03-04T03:49:19.117Z,992.27
2019-03-04T03:50:19.161Z,992.23
2019-03-04T03:51:19.155Z,992.13
2019-03-04T03:52:19.143Z,992.09
2019-03-04T03:53:19.216Z,992.05
2019-03-04T03:54:19.141Z,992.00
2019-03-04T03:55:19.149Z,992.13
2019-03-04T03:56:19.199Z,992.22
2019-03-04T03:57:19.167Z,992.19
2019-03-04T03:58:19.359Z,992.20
2019-03-04T03:59:19.177Z,992.21
2019-03-04T04:00:19.198Z,992.22
2019-03-04T04:01:19.176Z,992.23
2019-03-04T04:02:19.220Z,992.25
2019-03-04T04:03:19.197Z,992.28
2019-03-04T04:04:19.218Z,992.35
2019-03-04T04:05:19.202Z,992.31
2019-03-04T04:06:19.204Z,992.27
2019-03-04T04:07:19.232Z,992.24
2019-03-04T04:08:19.228Z,992.19
2019-03-04T04:09:19.246Z,992.17
2019-03-04T04:10:19.274Z,992.26
2019-03-04T04:11:19.232Z,992.24
2019-03-04T04:12:19.247Z,992.17
2019-03-04T04:13:19.273Z,992.10
2019-03-04T04:14:19.235Z,992.10
2019-03-04T04:15:19.242Z,992.08
2019-03-04T04:16:19.267Z,992.00
2019-03-04T04:17:19.261Z,991.97
2019-03-04T04:18:19.312Z,991.98
2019-03-04T04:19:19.274Z,991.98
2019-03-04T04:20:19.309Z,991.96
2019-03-04T04:21:19.283Z,991.89
2019-03-04T04:22:19.310Z,991.85
2019-03-04T04:23:19.308Z,991.81
2019-03-04T04:24:19.339Z,991.78
2019-03-04T04:25:19.316Z,991.74
2019-03-04T04:26:19.321Z,991.66
2019-03-04T04:27:19.327Z,991.65
2019-03-04T04:28:19.349Z,991.63
2019-03-04T04:29:19.319Z,991.64
2019-03-04T04:30:19.376Z,991.63
2019-03-04T04:31:19.345Z,991.59
2019-03-04T04:32:19.354Z,991.54
2019-03-04T04:33:19.344Z,991.49
2019-03-04T04:34:19.376Z,991.51
2019-03-04T04:35:19.381Z,991.48
2019-03-04T04:36:19.372Z,991.44
2019-03-04T04:37:19.384Z,991.43
2019-03-04T04:38:19.401Z,991.41
2019-03-04T04:39:19.386Z,991.33
2019-03-04T04:40:19.443Z,991.32
2019-03-04T04:41:19.431Z,991.34
2019-03-04T04:42:19.408Z,991.34
2019-03-04T04:43:19.415Z,991.34
2019-03-04T04:44:19.427Z,991.30
2019-03-04T04:45:19.420Z,991.32
2019-03-04T04:46:19.549Z,991.23
2019-03-04T04:47:19.414Z,991.27
2019-03-04T04:48:19.507Z,991.24
2019-03-04T04:49:19.444Z,991.19
2019-03-04T04:50:19.448Z,991.16
2019-03-04T04:51:19.466Z,991.16
2019-03-04T04:52:19.461Z,991.14
2019-03-04T04:53:19.454Z,991.11
2019-03-04T04:54:19.463Z,991.10
2019-03-04T04:55:19.498Z,991.09
2019-03-04T04:56:19.516Z,991.10
2019-03-04T04:57:19.482Z,991.06
2019-03-04T04:58:19.486Z,991.05
2019-03-04T04:59:19.496Z,991.03
2019-03-04T05:00:19.501Z,991.02
2019-03-04T05:01:19.539Z,990.99
2019-03-04T05:02:19.514Z,991.04
2019-03-04T05:03:19.558Z,991.07
2019-03-04T05:04:19.517Z,991.11
2019-03-04T05:05:19.522Z,991.10
2019-03-04T05:06:19.565Z,991.12
2019-03-04T05:07:19.576Z,991.04
2019-03-04T05:08:19.546Z,991.03
2019-03-04T05:09:19.590Z,991.01
2019-03-04T05:10:19.555Z,991.03
2019-03-04T05:11:19.565Z,991.04
2019-03-04T05:12:19.670Z,991.08
2019-03-04T05:13:19.587Z,991.01
2019-03-04T05:14:19.573Z,991.07
2019-03-04T05:15:19.590Z,991.04
2019-03-04T05:16:19.585Z,991.06
2019-03-04T05:17:19.592Z,991.06
2019-03-04T05:18:19.612Z,991.03
2019-03-04T05:19:19.613Z,990.98
2019-03-04T05:20:19.621Z,991.02
2019-03-04T05:21:19.876Z,991.01
2019-03-04T05:22:19.626Z,990.95
2019-03-04T05:23:19.651Z,990.92
2019-03-04T05:24:19.639Z,990.88
2019-03-04T05:25:19.634Z,990.89
2019-03-04T05:26:19.730Z,990.83
2019-03-04T05:27:19.678Z,990.79
2019-03-04T05:28:19.723Z,990.74
2019-03-04T05:29:19.796Z,990.68
2019-03-04T05:30:19.701Z,990.73
2019-03-04T05:31:19.698Z,990.75
2019-03-04T05:32:19.677Z,990.75
2019-03-04T05:33:19.687Z,990.64
2019-03-04T05:34:19.752Z,990.61
2019-03-04T05:35:19.726Z,990.60
2019-03-04T05:36:19.711Z,990.57
2019-03-04T05:37:19.701Z,990.67
2019-03-04T05:38:19.772Z,990.68
2019-03-04T05:39:19.718Z,990.63
2019-03-04T05:40:19.723Z,990.63
2019-03-04T05:41:19.753Z,990.59
2019-03-04T05:42:19.726Z,990.57
2019-03-04T05:43:19.737Z,990.60
2019-03-04T05:44:19.748Z,990.56
2019-03-04T05:45:19.775Z,990.59
2019-03-04T05:46:19.782Z,990.59
2019-03-04T05:47:19.754Z,990.60
2019-03-04T05:48:19.798Z,990.60
2019-03-04T05:49:19.779Z,990.58
2019-03-04T05:50:19.776Z,990.55
2019-03-04T05:51:19.792Z,990.54
2019-03-04T05:52:19.801Z,990.53
2019-03-04T05:53:19.828Z,990.52
2019-03-04T05:54:19.810Z,990.49
2019-03-04T05:55:19.807Z,990.49
2019-03-04T05:56:19.816Z,990.46
2019-03-04T05:57:19.826Z,990.49
2019-03-04T05:58:19.861Z,990.44
2019-03-04T05:59:20.250Z,990.44
2019-03-04T06:00:19.854Z,990.43
2019-03-04T06:01:19.854Z,990.39
2019-03-04T06:02:19.858Z,990.34
2019-03-04T06:03:19.864Z,990.29
2019-03-04T06:04:19.901Z,990.32
2019-03-04T06:05:19.876Z,990.32
2019-03-04T06:06:19.892Z,990.33
2019-03-04T06:07:19.885Z,990.29
2019-03-04T06:08:19.895Z,990.29
2019-03-04T06:09:19.895Z,990.27
2019-03-04T06:10:19.945Z,990.27
2019-03-04T06:11:19.914Z,990.25
2019-03-04T06:12:19.919Z,990.25
2019-03-04T06:13:19.929Z,990.27
2019-03-04T06:14:19.925Z,990.27
2019-03-04T06:15:19.975Z,990.23
2019-03-04T06:16:19.945Z,990.24
2019-03-04T06:17:19.959Z,990.21
2019-03-04T06:18:19.953Z,990.22
2019-03-04T06:19:20.004Z,990.18
2019-03-04T06:20:19.975Z,990.20
2019-03-04T06:21:20.017Z,990.13
2019-03-04T06:22:19.968Z,990.06
2019-03-04T06:23:19.998Z,990.05
2019-03-04T06:24:20.001Z,989.99
2019-03-04T06:25:20.006Z,989.93
2019-03-04T06:26:20.024Z,989.93
2019-03-04T06:27:20.015Z,989.89
2019-03-04T06:28:20.011Z,989.83
2019-03-04T06:29:20.037Z,989.87
2019-03-04T06:30:20.039Z,989.86
2019-03-04T06:31:20.055Z,989.81
2019-03-04T06:32:20.042Z,989.75
2019-03-04T06:33:20.050Z,989.80
2019-03-04T06:34:20.070Z,989.83
2019-03-04T06:35:20.102Z,989.82
2019-03-04T06:36:20.085Z,989.86
2019-03-04T06:37:20.088Z,989.94
2019-03-04T06:38:20.133Z,989.85
2019-03-04T06:39:20.070Z,989.74
2019-03-04T06:40:20.102Z,989.70
2019-03-04T06:41:20.108Z,989.69
2019-03-04T06:42:20.150Z,989.70
2019-03-04T06:43:20.128Z,989.73
2019-03-04T06:44:20.139Z,989.73
2019-03-04T06:45:20.126Z,989.64
2019-03-04T06:46:20.114Z,989.52
2019-03-04T06:47:20.151Z,989.59
2019-03-04T06:48:20.168Z,989.65
2019-03-04T06:49:20.174Z,989.66
2019-03-04T06:50:20.138Z,989.65
2019-03-04T06:51:20.145Z,989.67
2019-03-04T06:52:20.199Z,989.59
2019-03-04T06:53:20.160Z,989.55
2019-03-04T06:54:20.194Z,989.60
2019-03-04T06:55:20.169Z,989.56
2019-03-04T06:56:20.204Z,989.59
2019-03-04T06:57:28.210Z,989.59
2019-03-04T06:58:20.192Z,989.51
2019-03-04T06:59:20.244Z,989.53
2019-03-04T07:00:20.312Z,989.49
2019-03-04T07:01:20.207Z,989.50
2019-03-04T07:02:20.211Z,989.44
2019-03-04T07:03:20.227Z,989.37
2019-03-04T07:04:20.283Z,989.28
2019-03-04T07:05:20.243Z,989.28
2019-03-04T07:06:20.247Z,989.25
2019-03-04T07:07:20.239Z,989.25
2019-03-04T07:08:20.278Z,989.19
2019-03-04T07:09:20.262Z,989.21
2019-03-04T07:10:20.313Z,989.12
2019-03-04T07:11:22.010Z,989.11
2019-03-04T07:12:20.285Z,989.08
2019-03-04T07:13:20.284Z,989.06
2019-03-04T07:14:20.342Z,989.08
2019-03-04T07:15:20.318Z,989.06
2019-03-04T07:16:20.340Z,989.02
2019-03-04T07:17:20.306Z,988.99
2019-03-04T07:18:20.400Z,989.02
2019-03-04T07:19:20.316Z,988.90
2019-03-04T07:20:20.337Z,988.86
2019-03-04T07:21:20.376Z,988.87
2019-03-04T07:22:20.362Z,988.87
2019-03-04T07:23:20.357Z,988.88
2019-03-04T07:24:20.357Z,988.88
2019-03-04T07:25:20.356Z,988.85
2019-03-04T07:26:20.373Z,988.89
2019-03-04T07:27:20.416Z,988.97
2019-03-04T07:28:20.390Z,988.97
2019-03-04T07:29:20.407Z,988.91
2019-03-04T07:30:20.447Z,988.84
2019-03-04T07:31:20.503Z,988.84
2019-03-04T07:32:20.446Z,988.77
2019-03-04T07:33:20.458Z,988.74
2019-03-04T07:34:20.455Z,988.74
2019-03-04T07:35:20.473Z,988.71
2019-03-04T07:36:20.432Z,988.68
2019-03-04T07:37:20.477Z,988.66
2019-03-04T07:38:20.453Z,988.62
2019-03-04T07:39:20.474Z,988.64
2019-03-04T07:40:20.469Z,988.61
2019-03-04T07:41:20.493Z,988.58
2019-03-04T07:42:20.530Z,988.58
2019-03-04T07:43:20.486Z,988.50
2019-03-04T07:44:20.535Z,988.41
2019-03-04T07:45:21.219Z,988.33
2019-03-04T07:46:20.550Z,988.26
2019-03-04T07:47:20.519Z,988.26
2019-03-04T07:48:20.548Z,988.29
2019-03-04T07:49:20.519Z,988.32
2019-03-04T07:50:20.540Z,988.28
2019-03-04T07:51:20.533Z,988.25
2019-03-04T07:52:20.546Z,988.24
2019-03-04T07:53:20.598Z,988.15
2019-03-04T07:54:20.553Z,988.15
2019-03-04T07:55:20.576Z,988.07
2019-03-04T07:56:20.578Z,988.07
2019-03-04T07:57:20.595Z,988.06
2019-03-04T07:58:20.645Z,988.00
2019-03-04T07:59:20.594Z,987.92
2019-03-04T08:00:20.598Z,987.90
2019-03-04T08:01:20.615Z,987.90
2019-03-04T08:02:20.612Z,987.87
2019-03-04T08:03:20.612Z,987.85
2019-03-04T08:04:20.699Z,987.89
2019-03-04T08:05:20.631Z,987.88
2019-03-04T08:06:20.642Z,987.92
2019-03-04T08:07:20.640Z,987.92
2019-03-04T08:08:20.662Z,988.00
2019-03-04T08:09:20.707Z,987.99
2019-03-04T08:10:20.671Z,987.92
2019-03-04T08:11:20.707Z,987.90
2019-03-04T08:12:20.686Z,987.82
2019-03-04T08:13:20.691Z,987.80
2019-03-04T08:14:20.751Z,987.81
2019-03-04T08:15:20.700Z,987.76
2019-03-04T08:16:20.713Z,987.76
2019-03-04T08:17:20.714Z,987.64
2019-03-04T08:18:20.727Z,987.66
2019-03-04T08:19:20.761Z,987.73
2019-03-04T08:20:20.769Z,987.65
2019-03-04T08:21:20.750Z,987.59
2019-03-04T08:22:20.805Z,987.58
2019-03-04T08:23:20.760Z,987.51
2019-03-04T08:24:20.764Z,987.41
2019-03-04T08:25:20.796Z,987.34
2019-03-04T08:26:20.800Z,987.27
2019-03-04T08:27:20.790Z,987.24
2019-03-04T08:28:20.802Z,987.16
2019-03-04T08:29:20.805Z,987.16
2019-03-04T08:30:20.861Z,987.16
2019-03-04T08:31:20.810Z,987.00
2019-03-04T08:32:20.819Z,986.88
2019-03-04T08:33:20.833Z,986.72
2019-03-04T08:34:30.579Z,986.71
2019-03-04T08:35:20.848Z,986.90
2019-03-04T08:36:20.898Z,987.08
2019-03-04T08:37:20.891Z,987.04
2019-03-04T08:38:20.866Z,987.00
2019-03-04T08:39:22.911Z,986.88
2019-03-04T08:40:20.879Z,986.77
2019-03-04T08:41:20.888Z,986.80
2019-03-04T08:42:20.923Z,987.07
2019-03-04T08:43:20.931Z,987.32
2019-03-04T08:44:20.916Z,987.12
2019-03-04T08:45:20.927Z,986.96
2019-03-04T08:46:20.943Z,986.86
2019-03-04T08:47:20.964Z,986.86
2019-03-04T08:48:20.961Z,986.86
2019-03-04T08:49:20.980Z,986.78
2019-03-04T08:50:20.969Z,986.76
2019-03-04T08:51:20.976Z,986.73
2019-03-04T08:52:20.994Z,986.71
2019-03-04T08:53:21.005Z,986.63
2019-03-04T08:54:21.027Z,986.39
2019-03-04T08:55:21.001Z,986.24
2019-03-04T08:56:21.018Z,986.12
2019-03-04T08:57:21.028Z,986.33
2019-03-04T08:58:21.078Z,986.36
2019-03-04T08:59:21.034Z,986.42
2019-03-04T09:00:21.041Z,986.51
2019-03-04T09:01:21.072Z,986.69
2019-03-04T09:02:21.052Z,986.70
2019-03-04T09:03:21.069Z,986.70
2019-03-04T09:04:21.086Z,986.63
2019-03-04T09:05:21.094Z,986.51
2019-03-04T09:06:21.077Z,986.42
2019-03-04T09:07:21.098Z,986.47
2019-03-04T09:08:21.106Z,986.38
2019-03-04T09:09:21.134Z,986.27
2019-03-04T09:10:21.120Z,986.23
2019-03-04T09:11:21.125Z,986.17
2019-03-04T09:12:21.145Z,986.19
2019-03-04T09:13:21.139Z,986.11
2019-03-04T09:14:21.161Z,986.13
2019-03-04T09:15:21.162Z,986.12
2019-03-04T09:16:21.168Z,986.19
2019-03-04T09:17:21.184Z,986.15
2019-03-04T09:18:21.211Z,986.12
2019-03-04T09:19:21.213Z,986.13
2019-03-04T09:20:21.187Z,986.05
2019-03-04T09:21:21.202Z,985.93
2019-03-04T09:22:21.246Z,986.00
2019-03-04T09:23:21.241Z,985.99
2019-03-04T09:24:21.234Z,985.94
2019-03-04T09:25:30.067Z,985.84
2019-03-04T09:26:21.249Z,985.72
2019-03-04T09:27:21.282Z,985.80
2019-03-04T09:28:21.282Z,985.84
2019-03-04T09:29:21.278Z,985.82
2019-03-04T09:30:21.306Z,985.85
2019-03-04T09:31:21.295Z,985.92
2019-03-04T09:32:21.365Z,985.93
2019-03-04T09:33:21.325Z,985.92
2019-03-04T09:34:21.314Z,985.94
2019-03-04T09:35:21.339Z,985.95
2019-03-04T09:36:21.322Z,985.99
2019-03-04T09:37:21.370Z,985.94
2019-03-04T09:38:21.405Z,985.91
2019-03-04T09:39:21.379Z,985.85
2019-03-04T09:40:21.366Z,985.77
2019-03-04T09:41:21.392Z,985.74
2019-03-04T09:42:21.394Z,985.71
2019-03-04T09:43:21.409Z,985.72
2019-03-04T09:44:21.389Z,985.70
2019-03-04T09:45:21.437Z,985.73
2019-03-04T09:46:21.402Z,985.75
2019-03-04T09:47:21.420Z,985.84
2019-03-04T09:48:21.443Z,985.87
2019-03-04T09:49:21.433Z,985.87
2019-03-04T09:50:21.483Z,985.87
2019-03-04T09:51:24.562Z,985.79
2019-03-04T09:52:21.457Z,985.76
2019-03-04T09:53:21.535Z,985.76
2019-03-04T09:54:21.480Z,985.77
2019-03-04T09:55:21.499Z,985.78
2019-03-04T09:56:21.521Z,985.74
2019-03-04T09:57:21.501Z,985.72
2019-03-04T09:58:21.558Z,985.75
2019-03-04T09:59:21.657Z,985.68
2019-03-04T10:00:21.540Z,985.66
2019-03-04T10:01:21.541Z,985.64
2019-03-04T10:02:21.535Z,985.57
2019-03-04T10:03:21.564Z,985.59
2019-03-04T10:04:21.624Z,985.54
2019-03-04T10:05:21.597Z,985.55
2019-03-04T10:06:21.639Z,985.54
2019-03-04T10:07:21.604Z,985.49
2019-03-04T10:08:21.598Z,985.50
2019-03-04T10:09:21.619Z,985.49
2019-03-04T10:10:21.608Z,985.42
2019-03-04T10:11:21.647Z,985.39
2019-03-04T10:12:21.661Z,985.29
2019-03-04T10:13:21.645Z,985.30
2019-03-04T10:14:21.652Z,985.30
2019-03-04T10:15:21.661Z,985.26
2019-03-04T10:16:21.648Z,985.21
2019-03-04T10:17:21.681Z,985.17
2019-03-04T10:18:21.740Z,985.13
2019-03-04T10:19:21.674Z,985.05
2019-03-04T10:20:21.688Z,984.98
2019-03-04T10:21:21.697Z,984.98
2019-03-04T10:22:21.719Z,985.01
2019-03-04T10:23:21.715Z,984.92
2019-03-04T10:24:21.763Z,984.91
2019-03-04T10:25:21.733Z,984.77
2019-03-04T10:26:23.003Z,984.72
2019-03-04T10:27:21.756Z,984.65
2019-03-04T10:28:21.745Z,984.70
2019-03-04T10:29:21.848Z,984.71
2019-03-04T10:30:21.768Z,984.67
2019-03-04T10:31:21.769Z,984.68
2019-03-04T10:32:21.791Z,984.62
2019-03-04T10:33:21.809Z,984.63
2019-03-04T10:34:21.790Z,984.73
2019-03-04T10:35:21.842Z,984.75
2019-03-04T10:36:21.830Z,984.82
2019-03-04T10:37:21.855Z,984.77
2019-03-04T10:38:22.880Z,984.77
2019-03-04T10:39:22.405Z,984.67
2019-03-04T10:40:21.860Z,984.69
2019-03-04T10:41:21.890Z,984.71
2019-03-04T10:42:21.967Z,984.75
2019-03-04T10:43:21.888Z,984.72
2019-03-04T10:44:21.892Z,984.68
2019-03-04T10:45:21.900Z,984.83
2019-03-04T10:46:21.913Z,984.74
2019-03-04T10:47:21.928Z,984.62
2019-03-04T10:48:21.963Z,984.61
2019-03-04T10:49:21.936Z,984.59
2019-03-04T10:50:21.941Z,984.57
2019-03-04T10:51:21.939Z,984.43
2019-03-04T10:52:21.952Z,984.55
2019-03-04T10:53:21.968Z,984.51
2019-03-04T10:54:22.011Z,984.53
2019-03-04T10:55:21.980Z,984.59
2019-03-04T10:56:21.989Z,984.54
2019-03-04T10:57:21.997Z,984.47
2019-03-04T10:58:22.044Z,984.39
2019-03-04T10:59:22.037Z,984.39
2019-03-04T11:00:22.026Z,984.50
2019-03-04T11:01:30.185Z,984.32
2019-03-04T11:02:22.032Z,984.46
2019-03-04T11:03:22.066Z,984.32
2019-03-04T11:04:22.098Z,984.26
2019-03-04T11:05:22.094Z,984.29
2019-03-04T11:06:22.104Z,984.39
2019-03-04T11:07:22.074Z,984.51
2019-03-04T11:08:22.098Z,984.42
2019-03-04T11:09:22.097Z,984.41
2019-03-04T11:10:22.140Z,984.43
2019-03-04T11:11:29.490Z,984.46
2019-03-04T11:12:22.155Z,984.51
2019-03-04T11:13:22.135Z,984.42
2019-03-04T11:14:22.140Z,984.49
2019-03-04T11:15:22.165Z,984.72
2019-03-04T11:16:22.205Z,984.72
2019-03-04T11:17:22.188Z,984.58
2019-03-04T11:18:22.183Z,984.45
2019-03-04T11:19:22.205Z,984.58
2019-03-04T11:20:22.218Z,984.72
2019-03-04T11:21:22.263Z,984.67
2019-03-04T11:22:22.221Z,984.62
2019-03-04T11:23:22.235Z,984.67
2019-03-04T11:24:22.229Z,984.62
2019-03-04T11:25:22.237Z,984.56
2019-03-04T11:26:22.282Z,984.71
2019-03-04T11:27:22.283Z,985.01
2019-03-04T11:28:22.296Z,985.25
2019-03-04T11:29:22.301Z,985.43
2019-03-04T11:30:22.313Z,985.62
2019-03-04T11:31:22.363Z,986.03
2019-03-04T11:32:22.371Z,986.05
2019-03-04T11:33:22.329Z,985.88
2019-03-04T11:34:22.356Z,986.22
2019-03-04T11:35:22.350Z,986.13
2019-03-04T11:36:22.335Z,986.13
2019-03-04T11:37:22.424Z,986.29
2019-03-04T11:38:22.371Z,986.24
2019-03-04T11:39:22.410Z,986.26
2019-03-04T11:40:22.385Z,986.32
2019-03-04T11:41:22.397Z,986.31
2019-03-04T11:42:22.378Z,986.39
2019-03-04T11:43:22.414Z,986.23
2019-03-04T11:44:22.415Z,986.69
2019-03-04T11:45:22.472Z,986.42
2019-03-04T11:46:22.440Z,986.50
2019-03-04T11:47:22.428Z,986.57
2019-03-04T11:48:22.437Z,986.40
2019-03-04T11:49:22.446Z,986.52
2019-03-04T11:50:22.435Z,986.41
2019-03-04T11:51:22.477Z,986.40
2019-03-04T11:52:22.496Z,986.28
2019-03-04T11:53:22.480Z,986.36
2019-03-04T11:54:22.480Z,986.29
2019-03-04T11:55:22.626Z,986.27
2019-03-04T11:56:22.505Z,986.40
2019-03-04T11:57:22.503Z,986.30
2019-03-04T11:58:22.487Z,985.97
2019-03-04T11:59:22.529Z,986.09
2019-03-04T12:00:22.517Z,986.00
2019-03-04T12:01:22.587Z,985.94
2019-03-04T12:02:22.534Z,985.92
2019-03-04T12:03:22.538Z,985.88
2019-03-04T12:04:22.555Z,985.97
2019-03-04T12:05:22.543Z,986.02
2019-03-04T12:06:22.546Z,986.00
2019-03-04T12:07:22.586Z,985.90
2019-03-04T12:08:22.577Z,985.80
2019-03-04T12:09:22.596Z,985.63
2019-03-04T12:10:22.621Z,985.73
2019-03-04T12:11:22.578Z,985.61
2019-03-04T12:12:22.664Z,985.49
2019-03-04T12:13:22.602Z,985.46
2019-03-04T12:14:22.607Z,985.61
2019-03-04T12:15:22.600Z,985.53
2019-03-04T12:16:22.614Z,985.51
2019-03-04T12:17:22.666Z,985.53
2019-03-04T12:18:22.668Z,985.48
2019-03-04T12:19:22.644Z,985.57
2019-03-04T12:20:22.642Z,985.55
2019-03-04T12:21:22.656Z,985.61
2019-03-04T12:22:22.663Z,985.59
2019-03-04T12:23:22.710Z,985.74
2019-03-04T12:24:22.712Z,985.70
2019-03-04T12:25:22.682Z,985.69
2019-03-04T12:26:22.684Z,985.58
2019-03-04T12:27:22.693Z,985.54
2019-03-04T12:28:22.695Z,985.42